sensor_id;sensor_type;location;lat;lon;timestamp;pressure;altitude;pressure_sealevel;temperature;humidity
23016;BME280;11674;52.428;13.584;2023-11-21T00:02:02;100543.50;;;7.05;87.35
23016;BME280;11674;52.428;13.584;2023-11-21T00:07:09;100540.91;;;6.90;87.21
23016;BME280;11674;52.428;13.584;2023-11-21T00:12:17;100546.44;;;6.66;86.59
23016;BME280;11674;52.428;13.584;2023-11-21T00:17:24;100564.13;;;6.42;86.28
23016;BME280;11674;52.428;13.584;2023-11-21T00:22:35;100569.00;;;6.26;86.83
23016;BME280;11674;52.428;13.584;2023-11-21T00:27:43;100571.28;;;6.19;87.13
23016;BME280;11674;52.428;13.584;2023-11-21T00:32:49;100576.69;;;6.01;86.16
23016;BME280;11674;52.428;13.584;2023-11-21T00:37:56;100581.28;;;5.77;86.37
23016;BME280;11674;52.428;13.584;2023-11-21T00:43:03;100588.59;;;5.63;86.76
23016;BME280;11674;52.428;13.584;2023-11-21T00:48:10;100596.94;;;5.58;87.04
23016;BME280;11674;52.428;13.584;2023-11-21T00:53:17;100601.38;;;5.54;86.80
23016;BME280;11674;52.428;13.584;2023-11-21T00:58:25;100618.28;;;5.47;86.83
23016;BME280;11674;52.428;13.584;2023-11-21T01:03:31;100615.22;;;5.49;87.12
23016;BME280;11674;52.428;13.584;2023-11-21T01:08:38;100626.84;;;5.46;86.99
23016;BME280;11674;52.428;13.584;2023-11-21T01:13:45;100624.09;;;5.41;86.57
23016;BME280;11674;52.428;13.584;2023-11-21T01:18:52;100626.66;;;5.27;86.39
23016;BME280;11674;52.428;13.584;2023-11-21T01:23:59;100642.22;;;5.13;86.38
23016;BME280;11674;52.428;13.584;2023-11-21T01:29:06;100636.72;;;5.03;86.73
23016;BME280;11674;52.428;13.584;2023-11-21T01:34:13;100648.31;;;5.00;86.60
23016;BME280;11674;52.428;13.584;2023-11-21T01:39:20;100641.41;;;4.98;87.04
23016;BME280;11674;52.428;13.584;2023-11-21T01:44:28;100658.31;;;4.96;86.72
23016;BME280;11674;52.428;13.584;2023-11-21T01:49:36;100664.66;;;4.87;86.50
23016;BME280;11674;52.428;13.584;2023-11-21T01:54:44;100668.81;;;4.79;86.68
23016;BME280;11674;52.428;13.584;2023-11-21T01:59:51;100668.53;;;4.76;86.45
23016;BME280;11674;52.428;13.584;2023-11-21T02:05:00;100672.69;;;4.68;86.56
23016;BME280;11674;52.428;13.584;2023-11-21T02:10:08;100678.22;;;4.68;86.63
23016;BME280;11674;52.428;13.584;2023-11-21T02:15:16;100681.28;;;4.62;86.35
23016;BME280;11674;52.428;13.584;2023-11-21T02:20:23;100683.75;;;4.48;86.19
23016;BME280;11674;52.428;13.584;2023-11-21T02:25:33;100690.63;;;4.36;86.03
23016;BME280;11674;52.428;13.584;2023-11-21T02:30:42;100702.22;;;4.23;86.31
23016;BME280;11674;52.428;13.584;2023-11-21T02:35:48;100706.66;;;4.24;86.50
23016;BME280;11674;52.428;13.584;2023-11-21T02:40:57;100704.16;;;4.22;86.43
23016;BME280;11674;52.428;13.584;2023-11-21T02:46:03;100704.41;;;4.16;86.19
23016;BME280;11674;52.428;13.584;2023-11-21T02:51:10;100722.06;;;4.05;86.28
23016;BME280;11674;52.428;13.584;2023-11-21T02:56:17;100728.41;;;4.00;86.18
23016;BME280;11674;52.428;13.584;2023-11-21T03:01:24;100725.34;;;3.97;86.28
23016;BME280;11674;52.428;13.584;2023-11-21T03:06:31;100731.41;;;3.94;86.28
23016;BME280;11674;52.428;13.584;2023-11-21T03:11:38;100724.78;;;3.95;86.53
23016;BME280;11674;52.428;13.584;2023-11-21T03:16:45;100736.38;;;4.02;86.52
23016;BME280;11674;52.428;13.584;2023-11-21T03:21:56;100738.34;;;4.01;86.30
23016;BME280;11674;52.428;13.584;2023-11-21T03:27:04;100733.91;;;3.95;85.85
23016;BME280;11674;52.428;13.584;2023-11-21T03:32:13;100747.41;;;3.97;86.27
23016;BME280;11674;52.428;13.584;2023-11-21T03:37:24;100753.75;;;3.92;85.83
23016;BME280;11674;52.428;13.584;2023-11-21T03:42:30;100763.13;;;3.86;85.84
23016;BME280;11674;52.428;13.584;2023-11-21T03:47:37;100765.59;;;3.83;85.90
23016;BME280;11674;52.428;13.584;2023-11-21T03:52:44;100768.34;;;3.78;85.71
23016;BME280;11674;52.428;13.584;2023-11-21T03:57:52;100780.19;;;3.73;85.85
23016;BME280;11674;52.428;13.584;2023-11-21T04:03:02;100783.22;;;3.72;85.92
23016;BME280;11674;52.428;13.584;2023-11-21T04:08:08;100792.84;;;3.69;85.90
23016;BME280;11674;52.428;13.584;2023-11-21T04:13:15;100796.97;;;3.67;85.75
23016;BME280;11674;52.428;13.584;2023-11-21T04:18:22;100785.91;;;3.62;85.74
23016;BME280;11674;52.428;13.584;2023-11-21T04:23:29;100800.81;;;3.61;85.78
23016;BME280;11674;52.428;13.584;2023-11-21T04:29:05;100796.94;;;3.62;85.98
23016;BME280;11674;52.428;13.584;2023-11-21T04:34:14;100813.47;;;3.57;85.44
23016;BME280;11674;52.428;13.584;2023-11-21T04:39:21;100815.31;;;3.46;85.35
23016;BME280;11674;52.428;13.584;2023-11-21T04:44:28;100823.00;;;3.39;85.35
23016;BME280;11674;52.428;13.584;2023-11-21T04:49:35;100828.78;;;3.38;85.58
23016;BME280;11674;52.428;13.584;2023-11-21T04:54:42;100841.50;;;3.39;85.67
23016;BME280;11674;52.428;13.584;2023-11-21T04:59:49;100845.34;;;3.43;85.71
23016;BME280;11674;52.428;13.584;2023-11-21T05:04:56;100844.28;;;3.44;85.50
23016;BME280;11674;52.428;13.584;2023-11-21T05:10:07;100851.72;;;3.43;85.57
23016;BME280;11674;52.428;13.584;2023-11-21T05:15:15;100870.75;;;3.45;85.52
23016;BME280;11674;52.428;13.584;2023-11-21T05:20:21;100872.94;;;3.43;85.30
23016;BME280;11674;52.428;13.584;2023-11-21T05:25:28;100875.66;;;3.38;85.33
23016;BME280;11674;52.428;13.584;2023-11-21T05:30:35;100876.50;;;3.38;85.76
23016;BME280;11674;52.428;13.584;2023-11-21T05:35:42;100880.13;;;3.44;85.60
23016;BME280;11674;52.428;13.584;2023-11-21T05:40:49;100888.41;;;3.44;85.77
23016;BME280;11674;52.428;13.584;2023-11-21T05:45:56;100898.03;;;3.46;85.63
23016;BME280;11674;52.428;13.584;2023-11-21T05:51:06;100900.81;;;3.46;85.63
23016;BME280;11674;52.428;13.584;2023-11-21T05:56:13;100916.84;;;3.49;85.58
23016;BME280;11674;52.428;13.584;2023-11-21T06:01:20;100920.69;;;3.48;85.64
23016;BME280;11674;52.428;13.584;2023-11-21T06:06:27;100924.56;;;3.47;85.77
23016;BME280;11674;52.428;13.584;2023-11-21T06:11:35;100929.22;;;3.47;85.80
23016;BME280;11674;52.428;13.584;2023-11-21T06:16:41;100933.59;;;3.43;85.93
23016;BME280;11674;52.428;13.584;2023-11-21T06:21:48;100946.81;;;3.41;85.87
23016;BME280;11674;52.428;13.584;2023-11-21T06:26:55;100955.63;;;3.38;86.02
23016;BME280;11674;52.428;13.584;2023-11-21T06:32:02;100964.72;;;3.38;86.18
23016;BME280;11674;52.428;13.584;2023-11-21T06:37:09;100975.50;;;3.40;86.17
23016;BME280;11674;52.428;13.584;2023-11-21T06:42:16;100985.38;;;3.36;86.01
23016;BME280;11674;52.428;13.584;2023-11-21T06:47:27;100996.66;;;3.34;86.01
23016;BME280;11674;52.428;13.584;2023-11-21T06:52:34;100994.75;;;3.35;86.22
23016;BME280;11674;52.428;13.584;2023-11-21T06:57:41;100997.78;;;3.33;86.05
23016;BME280;11674;52.428;13.584;2023-11-21T07:02:48;101007.13;;;3.32;86.40
23016;BME280;11674;52.428;13.584;2023-11-21T07:08:02;101005.53;;;3.36;86.33
23016;BME280;11674;52.428;13.584;2023-11-21T07:13:09;101021.78;;;3.38;86.21
23016;BME280;11674;52.428;13.584;2023-11-21T07:18:16;101021.75;;;3.33;85.99
23016;BME280;11674;52.428;13.584;2023-11-21T07:23:23;101028.34;;;3.32;86.04
23016;BME280;11674;52.428;13.584;2023-11-21T07:28:30;101043.78;;;3.33;86.01
23016;BME280;11674;52.428;13.584;2023-11-21T07:33:38;101041.56;;;3.30;86.02
23016;BME280;11674;52.428;13.584;2023-11-21T07:38:44;101042.09;;;3.27;85.82
23016;BME280;11674;52.428;13.584;2023-11-21T07:43:51;101043.38;;;3.19;85.92
23016;BME280;11674;52.428;13.584;2023-11-21T07:49:01;101041.66;;;3.13;85.92
23016;BME280;11674;52.428;13.584;2023-11-21T07:54:07;101055.44;;;3.13;85.94
23016;BME280;11674;52.428;13.584;2023-11-21T07:59:14;101061.53;;;3.15;86.01
23016;BME280;11674;52.428;13.584;2023-11-21T08:04:21;101058.25;;;3.18;86.18
23016;BME280;11674;52.428;13.584;2023-11-21T08:09:29;101069.94;;;3.25;86.26
23016;BME280;11674;52.428;13.584;2023-11-21T08:14:35;101077.66;;;3.28;85.94
23016;BME280;11674;52.428;13.584;2023-11-21T08:19:42;101086.50;;;3.30;86.08
23016;BME280;11674;52.428;13.584;2023-11-21T08:24:49;101086.97;;;3.22;85.57
23016;BME280;11674;52.428;13.584;2023-11-21T08:29:56;101094.34;;;3.17;85.81
23016;BME280;11674;52.428;13.584;2023-11-21T08:35:04;101094.88;;;3.14;85.94
23016;BME280;11674;52.428;13.584;2023-11-21T08:40:11;101092.13;;;3.14;85.99
23016;BME280;11674;52.428;13.584;2023-11-21T08:45:19;101100.31;;;3.09;85.95
23016;BME280;11674;52.428;13.584;2023-11-21T08:50:25;101110.44;;;3.03;85.88
23016;BME280;11674;52.428;13.584;2023-11-21T08:55:32;101113.53;;;3.07;86.18
23016;BME280;11674;52.428;13.584;2023-11-21T09:00:40;101113.06;;;3.15;86.23
23016;BME280;11674;52.428;13.584;2023-11-21T09:05:46;101143.94;;;3.12;85.91
23016;BME280;11674;52.428;13.584;2023-11-21T09:10:56;101132.06;;;3.11;85.94
23016;BME280;11674;52.428;13.584;2023-11-21T09:16:05;101145.31;;;3.14;85.95
23016;BME280;11674;52.428;13.584;2023-11-21T09:21:12;101155.28;;;3.15;86.08
23016;BME280;11674;52.428;13.584;2023-11-21T09:26:19;101159.69;;;3.16;86.10
23016;BME280;11674;52.428;13.584;2023-11-21T09:31:26;101167.72;;;3.18;85.91
23016;BME280;11674;52.428;13.584;2023-11-21T09:36:33;101177.25;;;3.10;85.76
23016;BME280;11674;52.428;13.584;2023-11-21T09:41:51;101185.75;;;3.09;86.15
23016;BME280;11674;52.428;13.584;2023-11-21T09:47:01;101183.78;;;3.04;85.68
23016;BME280;11674;52.428;13.584;2023-11-21T09:52:18;101192.47;;;2.96;85.62
23016;BME280;11674;52.428;13.584;2023-11-21T09:57:29;101194.34;;;2.91;85.80
23016;BME280;11674;52.428;13.584;2023-11-21T10:02:38;101206.88;;;2.82;85.62
23016;BME280;11674;52.428;13.584;2023-11-21T10:07:46;101208.13;;;2.74;85.78
23016;BME280;11674;52.428;13.584;2023-11-21T10:12:56;101216.47;;;2.79;86.04
23016;BME280;11674;52.428;13.584;2023-11-21T10:18:04;101196.31;;;2.95;86.39
23016;BME280;11674;52.428;13.584;2023-11-21T10:23:12;101209.47;;;3.10;86.46
23016;BME280;11674;52.428;13.584;2023-11-21T10:28:19;101209.63;;;3.20;85.99
23016;BME280;11674;52.428;13.584;2023-11-21T10:33:28;101217.75;;;3.10;85.84
23016;BME280;11674;52.428;13.584;2023-11-21T10:38:42;101212.75;;;3.07;85.73
23016;BME280;11674;52.428;13.584;2023-11-21T10:43:49;101218.19;;;3.02;85.85
23016;BME280;11674;52.428;13.584;2023-11-21T10:48:59;101219.84;;;3.03;85.80
23016;BME280;11674;52.428;13.584;2023-11-21T10:54:06;101240.75;;;2.99;85.99
23016;BME280;11674;52.428;13.584;2023-11-21T10:59:13;101228.19;;;3.08;85.81
23016;BME280;11674;52.428;13.584;2023-11-21T11:04:20;101240.88;;;3.09;85.96
23016;BME280;11674;52.428;13.584;2023-11-21T11:09:30;101241.47;;;3.11;85.83
23016;BME280;11674;52.428;13.584;2023-11-21T11:14:41;101254.44;;;3.10;85.86
23016;BME280;11674;52.428;13.584;2023-11-21T11:19:48;101249.25;;;2.97;85.38
23016;BME280;11674;52.428;13.584;2023-11-21T11:25:12;101245.75;;;2.85;85.59
23016;BME280;11674;52.428;13.584;2023-11-21T11:35:59;101264.47;;;2.67;85.58
23016;BME280;11674;52.428;13.584;2023-11-21T11:41:08;101287.75;;;2.59;85.73
23016;BME280;11674;52.428;13.584;2023-11-21T11:46:15;101296.00;;;2.59;85.85
23016;BME280;11674;52.428;13.584;2023-11-21T11:51:22;101296.84;;;2.60;85.95
23016;BME280;11674;52.428;13.584;2023-11-21T11:56:31;101302.84;;;2.57;85.89
23016;BME280;11674;52.428;13.584;2023-11-21T12:01:38;101314.94;;;2.56;85.93
23016;BME280;11674;52.428;13.584;2023-11-21T12:06:45;101323.63;;;2.48;85.79
23016;BME280;11674;52.428;13.584;2023-11-21T12:11:52;101327.44;;;2.47;86.10
23016;BME280;11674;52.428;13.584;2023-11-21T12:17:02;101340.81;;;2.55;86.24
23016;BME280;11674;52.428;13.584;2023-11-21T12:22:13;101340.41;;;2.63;86.13
23016;BME280;11674;52.428;13.584;2023-11-21T12:27:20;101344.34;;;2.67;86.37
23016;BME280;11674;52.428;13.584;2023-11-21T12:32:28;101351.84;;;2.71;86.12
23016;BME280;11674;52.428;13.584;2023-11-21T12:37:35;101368.03;;;2.68;86.02
23016;BME280;11674;52.428;13.584;2023-11-21T12:42:44;101376.31;;;2.68;86.15
23016;BME280;11674;52.428;13.584;2023-11-21T12:47:55;101375.22;;;2.69;85.96
23016;BME280;11674;52.428;13.584;2023-11-21T12:53:04;101375.88;;;2.59;85.55
23016;BME280;11674;52.428;13.584;2023-11-21T12:58:12;101375.88;;;2.59;85.83
23016;BME280;11674;52.428;13.584;2023-11-21T13:03:19;101373.25;;;2.53;85.56
23016;BME280;11674;52.428;13.584;2023-11-21T13:08:26;101382.19;;;2.43;85.58
23016;BME280;11674;52.428;13.584;2023-11-21T13:13:35;101400.25;;;2.39;85.51
23016;BME280;11674;52.428;13.584;2023-11-21T13:18:42;101396.59;;;2.34;85.88
23016;BME280;11674;52.428;13.584;2023-11-21T13:23:49;101417.28;;;2.36;86.00
23016;BME280;11674;52.428;13.584;2023-11-21T13:28:56;101421.38;;;2.34;85.81
23016;BME280;11674;52.428;13.584;2023-11-21T13:34:03;101424.84;;;2.29;85.70
23016;BME280;11674;52.428;13.584;2023-11-21T13:39:10;101432.84;;;2.31;85.79
23016;BME280;11674;52.428;13.584;2023-11-21T13:44:17;101436.09;;;2.16;85.43
23016;BME280;11674;52.428;13.584;2023-11-21T13:49:24;101439.94;;;2.04;85.73
23016;BME280;11674;52.428;13.584;2023-11-21T13:54:31;101451.66;;;1.99;85.68
23016;BME280;11674;52.428;13.584;2023-11-21T13:59:38;101456.81;;;1.96;85.75
23016;BME280;11674;52.428;13.584;2023-11-21T14:04:45;101480.38;;;1.92;85.77
23016;BME280;11674;52.428;13.584;2023-11-21T14:09:52;101485.66;;;1.82;85.64
23016;BME280;11674;52.428;13.584;2023-11-21T14:14:59;101496.16;;;1.73;85.82
23016;BME280;11674;52.428;13.584;2023-11-21T14:20:06;101493.78;;;1.65;85.80
23016;BME280;11674;52.428;13.584;2023-11-21T14:25:15;101513.97;;;1.59;85.68
23016;BME280;11674;52.428;13.584;2023-11-21T14:30:22;101520.31;;;1.60;85.76
23016;BME280;11674;52.428;13.584;2023-11-21T14:35:29;101528.19;;;1.56;85.75
23016;BME280;11674;52.428;13.584;2023-11-21T14:40:36;101533.34;;;1.53;85.73
23016;BME280;11674;52.428;13.584;2023-11-21T14:45:43;101536.41;;;1.45;85.50
23016;BME280;11674;52.428;13.584;2023-11-21T14:50:52;101536.41;;;1.33;85.29
23016;BME280;11674;52.428;13.584;2023-11-21T14:55:59;101553.34;;;1.30;85.69
23016;BME280;11674;52.428;13.584;2023-11-21T15:01:06;101562.91;;;1.28;85.51
23016;BME280;11674;52.428;13.584;2023-11-21T15:06:13;101552.25;;;1.20;85.39
23016;BME280;11674;52.428;13.584;2023-11-21T15:11:20;101575.13;;;1.14;85.42
23016;BME280;11674;52.428;13.584;2023-11-21T15:16:27;101580.13;;;1.05;85.52
23016;BME280;11674;52.428;13.584;2023-11-21T15:21:34;101592.66;;;1.01;85.48
23016;BME280;11674;52.428;13.584;2023-11-21T15:26:41;101603.50;;;0.96;85.61
23016;BME280;11674;52.428;13.584;2023-11-21T15:31:51;101618.53;;;0.94;85.44
23016;BME280;11674;52.428;13.584;2023-11-21T15:36:58;101620.22;;;0.95;85.70
23016;BME280;11674;52.428;13.584;2023-11-21T15:42:05;101619.72;;;0.98;85.75
23016;BME280;11674;52.428;13.584;2023-11-21T15:47:12;101625.84;;;1.00;85.53
23016;BME280;11674;52.428;13.584;2023-11-21T15:52:19;101638.13;;;0.97;85.43
23016;BME280;11674;52.428;13.584;2023-11-21T15:57:26;101636.38;;;0.85;85.13
23016;BME280;11674;52.428;13.584;2023-11-21T16:02:33;101648.06;;;0.80;85.35
23016;BME280;11674;52.428;13.584;2023-11-21T16:07:40;101658.63;;;0.77;85.15
23016;BME280;11674;52.428;13.584;2023-11-21T16:12:48;101673.06;;;0.72;85.41
23016;BME280;11674;52.428;13.584;2023-11-21T16:17:55;101675.59;;;0.74;85.57
23016;BME280;11674;52.428;13.584;2023-11-21T16:23:02;101683.22;;;0.72;85.36
23016;BME280;11674;52.428;13.584;2023-11-21T16:28:09;101704.72;;;0.75;85.67
23016;BME280;11674;52.428;13.584;2023-11-21T16:33:16;101709.13;;;0.76;85.39
23016;BME280;11674;52.428;13.584;2023-11-21T16:38:23;101718.44;;;0.75;85.25
23016;BME280;11674;52.428;13.584;2023-11-21T16:43:30;101720.97;;;0.76;85.48
23016;BME280;11674;52.428;13.584;2023-11-21T16:48:37;101736.00;;;0.74;85.20
23016;BME280;11674;52.428;13.584;2023-11-21T16:54:04;101743.63;;;0.72;85.53
23016;BME280;11674;52.428;13.584;2023-11-21T16:59:11;101739.56;;;0.74;85.38
23016;BME280;11674;52.428;13.584;2023-11-21T17:04:18;101746.38;;;0.72;85.38
23016;BME280;11674;52.428;13.584;2023-11-21T17:09:25;101757.38;;;0.72;85.40
23016;BME280;11674;52.428;13.584;2023-11-21T17:14:32;101764.16;;;0.69;85.51
23016;BME280;11674;52.428;13.584;2023-11-21T17:19:42;101772.78;;;0.73;85.43
23016;BME280;11674;52.428;13.584;2023-11-21T17:24:49;101786.25;;;0.74;85.41
23016;BME280;11674;52.428;13.584;2023-11-21T17:29:56;101790.69;;;0.75;85.22
23016;BME280;11674;52.428;13.584;2023-11-21T17:35:10;101796.59;;;0.79;85.22
23016;BME280;11674;52.428;13.584;2023-11-21T17:40:17;101809.47;;;0.78;85.39
23016;BME280;11674;52.428;13.584;2023-11-21T17:45:24;101818.09;;;0.82;85.37
23016;BME280;11674;52.428;13.584;2023-11-21T17:50:31;101820.22;;;0.80;85.22
23016;BME280;11674;52.428;13.584;2023-11-21T17:55:38;101820.00;;;0.81;85.22
23016;BME280;11674;52.428;13.584;2023-11-21T18:00:45;101830.13;;;0.81;85.30
23016;BME280;11674;52.428;13.584;2023-11-21T18:05:52;101836.72;;;0.80;85.31
23016;BME280;11674;52.428;13.584;2023-11-21T18:10:59;101853.63;;;0.77;85.14
23016;BME280;11674;52.428;13.584;2023-11-21T18:16:06;101867.22;;;0.72;85.21
23016;BME280;11674;52.428;13.584;2023-11-21T18:21:13;101874.19;;;0.68;85.18
23016;BME280;11674;52.428;13.584;2023-11-21T18:26:20;101895.31;;;0.67;85.34
23016;BME280;11674;52.428;13.584;2023-11-21T18:31:27;101895.97;;;0.63;85.16
23016;BME280;11674;52.428;13.584;2023-11-21T18:36:34;101910.13;;;0.60;85.35
23016;BME280;11674;52.428;13.584;2023-11-21T18:41:50;101909.31;;;0.59;85.24
23016;BME280;11674;52.428;13.584;2023-11-21T18:46:57;101916.91;;;0.57;85.42
23016;BME280;11674;52.428;13.584;2023-11-21T18:52:04;101925.59;;;0.54;85.28
23016;BME280;11674;52.428;13.584;2023-11-21T18:57:11;101937.19;;;0.56;85.21
23016;BME280;11674;52.428;13.584;2023-11-21T19:02:18;101940.63;;;0.52;85.08
23016;BME280;11674;52.428;13.584;2023-11-21T19:07:25;101950.75;;;0.51;85.20
23016;BME280;11674;52.428;13.584;2023-11-21T19:12:32;101956.44;;;0.50;85.25
23016;BME280;11674;52.428;13.584;2023-11-21T19:17:39;101962.78;;;0.50;85.38
23016;BME280;11674;52.428;13.584;2023-11-21T19:22:46;101980.94;;;0.51;85.31
23016;BME280;11674;52.428;13.584;2023-11-21T19:27:53;101972.31;;;0.48;85.15
23016;BME280;11674;52.428;13.584;2023-11-21T19:33:00;101992.78;;;0.45;84.95
23016;BME280;11674;52.428;13.584;2023-11-21T19:38:07;102002.31;;;0.43;85.21
23016;BME280;11674;52.428;13.584;2023-11-21T19:43:15;102016.47;;;0.40;85.24
23016;BME280;11674;52.428;13.584;2023-11-21T19:48:22;102017.50;;;0.39;85.22
23016;BME280;11674;52.428;13.584;2023-11-21T19:53:29;102025.75;;;0.39;85.33
23016;BME280;11674;52.428;13.584;2023-11-21T19:58:37;102032.94;;;0.40;85.27
23016;BME280;11674;52.428;13.584;2023-11-21T20:03:44;102035.69;;;0.40;85.28
23016;BME280;11674;52.428;13.584;2023-11-21T20:08:51;102038.66;;;0.38;85.07
23016;BME280;11674;52.428;13.584;2023-11-21T20:13:58;102048.75;;;0.38;85.06
23016;BME280;11674;52.428;13.584;2023-11-21T20:19:05;102050.91;;;0.36;85.17
23016;BME280;11674;52.428;13.584;2023-11-21T20:24:12;102053.00;;;0.34;85.02
23016;BME280;11674;52.428;13.584;2023-11-21T20:29:19;102047.09;;;0.30;84.97
23016;BME280;11674;52.428;13.584;2023-11-21T20:34:26;102053.66;;;0.29;85.02
23016;BME280;11674;52.428;13.584;2023-11-21T20:39:33;102063.34;;;0.25;84.93
23016;BME280;11674;52.428;13.584;2023-11-21T20:44:40;102074.13;;;0.20;85.03
23016;BME280;11674;52.428;13.584;2023-11-21T20:49:47;102082.81;;;0.17;85.04
23016;BME280;11674;52.428;13.584;2023-11-21T20:54:54;102092.31;;;0.15;84.98
23016;BME280;11674;52.428;13.584;2023-11-21T21:00:01;102099.69;;;0.14;85.14
23016;BME280;11674;52.428;13.584;2023-11-21T21:05:08;102104.56;;;0.12;84.92
23016;BME280;11674;52.428;13.584;2023-11-21T21:10:15;102106.88;;;0.09;85.00
23016;BME280;11674;52.428;13.584;2023-11-21T21:15:22;102110.47;;;0.03;84.84
23016;BME280;11674;52.428;13.584;2023-11-21T21:20:29;102114.91;;;-0.03;84.94
23016;BME280;11674;52.428;13.584;2023-11-21T21:25:36;102114.28;;;-0.05;85.05
23016;BME280;11674;52.428;13.584;2023-11-21T21:30:43;102108.38;;;-0.08;85.07
23016;BME280;11674;52.428;13.584;2023-11-21T21:35:50;102128.19;;;-0.13;84.86
23016;BME280;11674;52.428;13.584;2023-11-21T21:40:57;102125.03;;;-0.16;85.00
23016;BME280;11674;52.428;13.584;2023-11-21T21:46:04;102138.72;;;-0.23;84.84
23016;BME280;11674;52.428;13.584;2023-11-21T21:56:23;102158.34;;;-0.32;84.74
23016;BME280;11674;52.428;13.584;2023-11-21T22:01:31;102167.19;;;-0.37;84.92
23016;BME280;11674;52.428;13.584;2023-11-21T22:06:38;102173.28;;;-0.41;84.76
23016;BME280;11674;52.428;13.584;2023-11-21T22:11:48;102172.03;;;-0.45;84.95
23016;BME280;11674;52.428;13.584;2023-11-21T22:16:55;102169.69;;;-0.48;84.98
23016;BME280;11674;52.428;13.584;2023-11-21T22:22:02;102167.34;;;-0.51;84.90
23016;BME280;11674;52.428;13.584;2023-11-21T22:27:20;102176.81;;;-0.54;84.84
23016;BME280;11674;52.428;13.584;2023-11-21T22:32:27;102184.84;;;-0.59;84.72
23016;BME280;11674;52.428;13.584;2023-11-21T22:37:34;102197.06;;;-0.61;84.95
23016;BME280;11674;52.428;13.584;2023-11-21T22:42:41;102189.88;;;-0.62;84.92
23016;BME280;11674;52.428;13.584;2023-11-21T22:47:48;102198.31;;;-0.64;84.82
23016;BME280;11674;52.428;13.584;2023-11-21T22:52:55;102211.78;;;-0.69;84.72
23016;BME280;11674;52.428;13.584;2023-11-21T22:58:02;102211.13;;;-0.71;84.71
23016;BME280;11674;52.428;13.584;2023-11-21T23:03:09;102211.56;;;-0.74;84.83
23016;BME280;11674;52.428;13.584;2023-11-21T23:08:16;102221.03;;;-0.76;84.93
23016;BME280;11674;52.428;13.584;2023-11-21T23:13:23;102235.34;;;-0.74;84.97
23016;BME280;11674;52.428;13.584;2023-11-21T23:18:30;102234.53;;;-0.75;84.88
23016;BME280;11674;52.428;13.584;2023-11-21T23:23:37;102219.78;;;-0.74;84.99
23016;BME280;11674;52.428;13.584;2023-11-21T23:28:44;102232.63;;;-0.74;84.63
23016;BME280;11674;52.428;13.584;2023-11-21T23:33:51;102244.59;;;-0.82;84.41
23016;BME280;11674;52.428;13.584;2023-11-21T23:38:58;102250.06;;;-0.88;84.43
23016;BME280;11674;52.428;13.584;2023-11-21T23:44:05;102243.47;;;-0.94;84.70
23016;BME280;11674;52.428;13.584;2023-11-21T23:49:12;102254.00;;;-0.97;84.61
23016;BME280;11674;52.428;13.584;2023-11-21T23:54:19;102255.25;;;-1.00;84.66
23016;BME280;11674;52.428;13.584;2023-11-21T23:59:33;102258.19;;;-1.01;84.73
